createdAt,value
2022-08-26T00:00:42.222Z,12.93
2022-08-26T00:03:16.337Z,12.77
2022-08-26T00:05:50.818Z,13.13
2022-08-26T00:08:24.319Z,15.47
2022-08-26T00:10:56.985Z,12.27
2022-08-26T00:13:31.779Z,11.63
2022-08-26T00:16:03.736Z,13.77
2022-08-26T00:18:38.816Z,11.40
2022-08-26T00:21:14.267Z,11.73
2022-08-26T00:23:41.642Z,11.67
2022-08-26T00:26:13.342Z,10.17
2022-08-26T00:28:40.517Z,11.90
2022-08-26T00:31:10.920Z,10.07
2022-08-26T00:33:41.075Z,12.97
2022-08-26T00:36:20.270Z,9.10
2022-08-26T00:38:50.118Z,10.57
2022-08-26T00:41:29.680Z,10.10
2022-08-26T00:44:10.500Z,9.53
2022-08-26T00:46:46.407Z,9.23
2022-08-26T00:49:22.811Z,8.80
2022-08-26T00:51:55.838Z,8.87
2022-08-26T00:54:28.011Z,8.00
2022-08-26T00:57:01.737Z,7.47
2022-08-26T00:59:32.669Z,7.20
2022-08-26T01:02:03.766Z,8.10
2022-08-26T01:04:40.666Z,7.70
2022-08-26T01:07:13.161Z,7.20
2022-08-26T01:09:43.987Z,5.63
2022-08-26T01:12:16.679Z,5.43
2022-08-26T01:14:53.059Z,5.13
2022-08-26T01:17:22.163Z,8.07
2022-08-26T01:20:01.120Z,5.77
2022-08-26T01:22:34.962Z,6.33
2022-08-26T01:25:06.299Z,5.53
2022-08-26T01:27:40.130Z,5.07
2022-08-26T01:30:08.002Z,5.10
2022-08-26T01:32:38.915Z,6.03
2022-08-26T01:35:12.721Z,4.60
2022-08-26T01:37:43.103Z,5.23
2022-08-26T01:40:38.348Z,4.33
2022-08-26T01:43:16.602Z,6.23
2022-08-26T01:45:48.189Z,4.83
2022-08-26T01:48:22.205Z,4.90
2022-08-26T01:50:53.279Z,4.53
2022-08-26T01:53:27.691Z,5.17
2022-08-26T01:56:04.837Z,5.00
2022-08-26T01:58:49.699Z,3.93
2022-08-26T02:01:22.100Z,3.33
2022-08-26T02:04:10.841Z,3.70
2022-08-26T02:06:45.563Z,5.07
2022-08-26T02:09:16.578Z,5.40
2022-08-26T02:11:46.910Z,7.17
2022-08-26T02:14:22.205Z,3.10
2022-08-26T02:16:56.390Z,3.60
2022-08-26T02:19:32.296Z,5.93
2022-08-26T02:22:02.625Z,3.60
2022-08-26T02:24:49.920Z,3.27
2022-08-26T02:27:22.101Z,5.80
2022-08-26T02:29:58.045Z,4.30
2022-08-26T02:32:33.431Z,3.40
2022-08-26T02:35:04.427Z,3.47
2022-08-26T02:37:36.827Z,3.23
2022-08-26T02:40:10.254Z,3.40
2022-08-26T02:42:42.669Z,3.00
2022-08-26T02:45:11.294Z,4.63
2022-08-26T02:47:50.903Z,2.57
2022-08-26T02:50:20.343Z,2.90
2022-08-26T02:52:50.283Z,3.40
2022-08-26T02:55:25.883Z,5.53
2022-08-26T02:58:03.746Z,3.30
2022-08-26T03:00:36.319Z,3.23
2022-08-26T03:03:04.079Z,2.73
2022-08-26T03:05:36.217Z,2.77
2022-08-26T03:08:08.368Z,4.13
2022-08-26T03:10:51.372Z,2.83
2022-08-26T03:13:22.955Z,3.27
2022-08-26T03:15:54.567Z,2.33
2022-08-26T03:18:27.654Z,2.93
2022-08-26T03:23:43.055Z,3.10
2022-08-26T03:26:14.253Z,3.60
2022-08-26T03:29:05.868Z,5.23
2022-08-26T03:31:40.660Z,2.27
2022-08-26T03:34:08.951Z,4.20
2022-08-26T03:36:45.935Z,3.30
2022-08-26T03:39:19.836Z,2.97
2022-08-26T03:41:50.261Z,3.07
2022-08-26T03:44:19.675Z,5.17
2022-08-26T03:46:52.048Z,3.60
2022-08-26T03:49:24.192Z,2.37
2022-08-26T03:51:52.986Z,2.87
2022-08-26T03:54:23.347Z,3.00
2022-08-26T03:56:55.707Z,3.57
2022-08-26T03:59:33.098Z,3.07
2022-08-26T04:02:03.844Z,3.27
2022-08-26T04:04:43.271Z,2.97
2022-08-26T04:07:18.192Z,3.57
2022-08-26T04:09:46.879Z,3.90
2022-08-26T04:12:16.586Z,2.80
2022-08-26T04:14:59.030Z,3.93
2022-08-26T04:17:34.830Z,2.97
2022-08-26T04:22:53.854Z,2.30
2022-08-26T04:25:26.938Z,2.87
2022-08-26T04:27:56.040Z,4.13
2022-08-26T04:30:26.337Z,3.30
2022-08-26T04:32:57.176Z,3.20
2022-08-26T04:35:32.307Z,3.73
2022-08-26T04:38:05.827Z,3.87
2022-08-26T04:40:35.727Z,2.83
2022-08-26T04:43:08.923Z,2.57
2022-08-26T04:45:42.059Z,2.57
2022-08-26T04:48:16.823Z,3.10
2022-08-26T04:50:49.425Z,1.80
2022-08-26T04:53:16.864Z,2.70
2022-08-26T04:55:46.124Z,5.13
2022-08-26T05:01:06.025Z,5.83
2022-08-26T05:03:40.832Z,3.93
2022-08-26T05:06:14.849Z,1.97
2022-08-26T05:11:35.424Z,4.13
2022-08-26T05:14:05.368Z,4.63
2022-08-26T05:16:36.074Z,2.80
2022-08-26T05:19:07.211Z,2.50
2022-08-26T05:21:41.605Z,2.60
2022-08-26T05:24:18.819Z,3.73
2022-08-26T05:26:50.206Z,2.73
2022-08-26T05:29:21.128Z,2.67
2022-08-26T05:31:53.843Z,3.07
2022-08-26T05:34:30.263Z,5.20
2022-08-26T05:36:59.723Z,3.50
2022-08-26T05:39:30.579Z,2.67
2022-08-26T05:42:04.754Z,3.17
2022-08-26T05:44:54.111Z,1.67
2022-08-26T05:47:27.286Z,2.67
2022-08-26T05:50:00.417Z,1.67
2022-08-26T05:52:30.770Z,4.50
2022-08-26T05:55:01.088Z,3.77
2022-08-26T05:57:39.948Z,3.50
2022-08-26T06:00:15.260Z,1.90
2022-08-26T06:02:44.917Z,4.37
2022-08-26T06:05:19.832Z,3.80
2022-08-26T06:08:10.721Z,2.43
2022-08-26T06:10:58.270Z,3.60
2022-08-26T06:13:30.354Z,4.97
2022-08-26T06:16:05.420Z,2.50
2022-08-26T06:18:39.637Z,3.90
2022-08-26T06:21:25.996Z,2.73
2022-08-26T06:24:18.645Z,1.90
2022-08-26T06:26:55.490Z,2.63
2022-08-26T06:29:27.898Z,2.70
2022-08-26T06:31:58.012Z,3.87
2022-08-26T06:34:29.732Z,3.90
2022-08-26T06:37:08.223Z,4.37
2022-08-26T06:39:41.217Z,2.97
2022-08-26T06:42:20.123Z,3.77
2022-08-26T06:44:52.103Z,3.70
2022-08-26T06:47:23.109Z,4.27
2022-08-26T06:49:58.445Z,4.80
2022-08-26T06:52:29.980Z,6.70
2022-08-26T06:55:01.831Z,9.53
2022-08-26T06:57:34.875Z,2.63
2022-08-26T07:00:11.300Z,5.60
2022-08-26T07:02:50.924Z,4.57
2022-08-26T07:05:22.412Z,4.30
2022-08-26T07:07:52.740Z,3.50
2022-08-26T07:10:27.852Z,4.00
2022-08-26T07:12:56.453Z,6.23
2022-08-26T07:15:31.185Z,3.23
2022-08-26T07:18:05.314Z,6.17
2022-08-26T07:20:32.737Z,3.80
2022-08-26T07:23:05.915Z,4.70
2022-08-26T07:25:45.262Z,3.37
2022-08-26T07:28:13.513Z,6.93
2022-08-26T07:30:43.753Z,4.67
2022-08-26T07:33:14.101Z,4.27
2022-08-26T07:35:45.136Z,5.40
2022-08-26T07:38:28.119Z,8.47
2022-08-26T07:41:04.663Z,10.60
2022-08-26T07:43:33.805Z,3.63
2022-08-26T07:46:06.402Z,4.83
2022-08-26T07:48:40.178Z,5.80
2022-08-26T07:51:19.051Z,4.27
2022-08-26T07:53:53.816Z,3.77
2022-08-26T07:56:27.599Z,5.50
2022-08-26T07:58:57.977Z,4.23
2022-08-26T08:01:40.134Z,8.23
2022-08-26T08:04:26.429Z,8.50
2022-08-26T08:06:57.177Z,6.03
2022-08-26T08:09:35.161Z,4.53
2022-08-26T08:12:02.382Z,7.17
2022-08-26T08:14:44.920Z,4.60
2022-08-26T08:17:18.800Z,6.40
2022-08-26T08:19:48.920Z,3.73
2022-08-26T08:22:23.916Z,5.17
2022-08-26T08:24:57.788Z,3.90
2022-08-26T08:27:32.108Z,5.00
2022-08-26T08:30:02.202Z,5.77
2022-08-26T08:32:33.318Z,3.57
2022-08-26T08:35:10.865Z,3.03
2022-08-26T08:37:44.478Z,4.63
2022-08-26T08:40:28.080Z,3.57
2022-08-26T08:43:17.646Z,7.53
2022-08-26T08:46:01.173Z,5.17
2022-08-26T08:48:37.189Z,4.77
2022-08-26T08:51:25.489Z,3.93
2022-08-26T08:54:05.641Z,4.43
2022-08-26T08:56:53.996Z,2.70
2022-08-26T08:59:28.354Z,8.40
2022-08-26T09:02:03.679Z,4.53
2022-08-26T09:04:49.578Z,4.67
2022-08-26T09:07:21.923Z,3.10
2022-08-26T09:09:59.349Z,4.60
2022-08-26T09:12:34.173Z,5.70
2022-08-26T09:15:28.554Z,6.83
2022-08-26T09:18:05.867Z,4.07
2022-08-26T09:20:49.470Z,7.30
2022-08-26T09:23:21.327Z,4.33
2022-08-26T09:26:00.955Z,6.33
2022-08-26T09:28:32.377Z,3.60
2022-08-26T09:31:11.182Z,3.83
2022-08-26T09:36:46.176Z,2.80
2022-08-26T09:39:33.670Z,3.40
2022-08-26T09:42:26.954Z,3.90
2022-08-26T09:44:56.110Z,5.93
2022-08-26T09:47:41.994Z,5.53
2022-08-26T09:50:47.718Z,3.43
2022-08-26T09:53:37.471Z,4.00
2022-08-26T09:56:20.477Z,4.73
2022-08-26T09:58:53.022Z,4.67
2022-08-26T10:01:52.636Z,5.00
2022-08-26T10:04:29.884Z,4.33
2022-08-26T10:07:10.919Z,5.67
2022-08-26T10:12:54.562Z,3.60
2022-08-26T10:15:26.871Z,2.53
2022-08-26T10:18:02.730Z,5.53
2022-08-26T10:20:39.135Z,8.97
2022-08-26T10:23:37.724Z,3.03
2022-08-26T10:26:26.823Z,4.67
2022-08-26T10:29:11.117Z,4.10
2022-08-26T10:31:45.180Z,6.07
2022-08-26T10:34:21.371Z,3.10
2022-08-26T10:37:16.493Z,5.57
2022-08-26T10:40:00.209Z,7.63
2022-08-26T10:42:45.672Z,3.63
2022-08-26T10:45:20.197Z,5.57
2022-08-26T10:48:02.454Z,4.50
2022-08-26T10:50:42.842Z,5.43
2022-08-26T10:53:25.324Z,6.13
2022-08-26T10:56:18.842Z,5.97
2022-08-26T10:58:56.337Z,5.60
2022-08-26T11:01:44.039Z,3.97
2022-08-26T11:04:36.032Z,5.93
2022-08-26T11:07:24.101Z,5.23
2022-08-26T11:09:56.618Z,6.90
2022-08-26T11:12:40.555Z,5.57
2022-08-26T11:15:32.794Z,8.47
2022-08-26T11:18:20.255Z,4.93
2022-08-26T11:20:57.814Z,6.23
2022-08-26T11:23:43.013Z,5.77
2022-08-26T11:26:35.399Z,5.47
2022-08-26T11:29:13.439Z,4.50
2022-08-26T11:31:51.087Z,4.47
2022-08-26T11:34:42.959Z,5.27
2022-08-26T11:37:14.562Z,4.70
2022-08-26T11:39:55.469Z,7.50
2022-08-26T11:42:28.140Z,7.47
2022-08-26T11:45:04.715Z,5.73
2022-08-26T11:47:36.035Z,5.37
2022-08-26T11:50:27.108Z,5.20
2022-08-26T11:52:59.652Z,4.87
2022-08-26T11:55:32.661Z,5.67
2022-08-26T11:58:05.732Z,4.63
2022-08-26T12:01:03.599Z,6.57
2022-08-26T12:03:56.058Z,4.40
2022-08-26T12:06:45.232Z,4.63
2022-08-26T12:09:22.873Z,7.00
2022-08-26T12:11:58.160Z,3.50
2022-08-26T12:14:31.140Z,6.43
2022-08-26T12:17:10.360Z,3.27
2022-08-26T12:19:41.448Z,5.00
2022-08-26T12:22:24.064Z,4.90
2022-08-26T12:25:07.276Z,4.33
2022-08-26T12:27:51.823Z,3.80
2022-08-26T12:30:24.037Z,5.33
2022-08-26T12:33:13.354Z,3.67
2022-08-26T12:35:56.681Z,4.90
2022-08-26T12:38:28.361Z,2.67
2022-08-26T12:41:01.784Z,4.47
2022-08-26T12:43:49.237Z,4.20
2022-08-26T12:46:25.235Z,4.10
2022-08-26T12:49:00.245Z,5.77
2022-08-26T12:51:33.878Z,3.47
2022-08-26T12:54:09.105Z,5.40
2022-08-26T12:56:38.723Z,3.87
2022-08-26T12:59:27.475Z,6.80
2022-08-26T13:01:55.149Z,4.47
2022-08-26T13:07:28.454Z,6.23
2022-08-26T13:10:00.336Z,2.53
2022-08-26T13:12:52.654Z,4.30
2022-08-26T13:15:23.432Z,4.73
2022-08-26T13:17:54.208Z,4.53
2022-08-26T13:20:28.169Z,5.73
2022-08-26T13:23:03.058Z,4.23
2022-08-26T13:25:32.900Z,5.77
2022-08-26T13:28:03.858Z,6.70
2022-08-26T13:30:35.182Z,4.53
2022-08-26T13:33:07.833Z,7.37
2022-08-26T13:35:42.160Z,5.70
2022-08-26T13:38:22.304Z,3.10
2022-08-26T13:41:06.873Z,2.00
2022-08-26T13:43:37.069Z,4.80
2022-08-26T13:46:07.548Z,4.37
2022-08-26T13:48:41.083Z,3.23
2022-08-26T13:51:16.487Z,4.73
2022-08-26T13:53:51.443Z,6.13
2022-08-26T13:56:22.815Z,3.60
2022-08-26T13:58:53.837Z,5.87
2022-08-26T14:01:25.078Z,4.37
2022-08-26T14:04:11.855Z,3.73
2022-08-26T14:06:42.238Z,3.23
2022-08-26T14:09:11.611Z,3.57
2022-08-26T14:11:50.924Z,4.70
2022-08-26T14:14:25.773Z,4.20
2022-08-26T14:16:59.341Z,2.87
2022-08-26T14:19:32.910Z,3.37
2022-08-26T14:22:02.906Z,4.57
2022-08-26T14:24:31.820Z,5.60
2022-08-26T14:27:02.192Z,5.27
2022-08-26T14:29:32.776Z,2.80
2022-08-26T14:32:04.059Z,3.10
2022-08-26T14:34:31.479Z,4.23
2022-08-26T14:37:07.780Z,4.13
2022-08-26T14:39:40.275Z,4.20
2022-08-26T14:42:15.259Z,6.67
2022-08-26T14:44:50.638Z,3.13
2022-08-26T14:47:21.873Z,5.40
2022-08-26T14:49:55.496Z,3.10
2022-08-26T14:52:26.419Z,3.50
2022-08-26T14:54:57.025Z,3.23
2022-08-26T14:57:25.956Z,4.00
2022-08-26T14:59:56.597Z,2.63
2022-08-26T15:02:33.281Z,2.90
2022-08-26T15:07:55.260Z,1.87
2022-08-26T15:10:25.041Z,3.30
2022-08-26T15:12:52.324Z,2.03
2022-08-26T15:15:24.621Z,3.50
2022-08-26T15:17:55.452Z,3.50
2022-08-26T15:20:24.111Z,4.10
2022-08-26T15:22:53.835Z,5.83
2022-08-26T15:25:23.079Z,1.97
2022-08-26T15:27:50.332Z,5.23
2022-08-26T15:30:21.407Z,2.70
2022-08-26T15:32:54.197Z,2.43
2022-08-26T15:35:26.752Z,2.67
2022-08-26T15:37:56.798Z,3.23
2022-08-26T15:40:29.270Z,4.27
2022-08-26T15:43:17.646Z,2.00
2022-08-26T15:45:50.909Z,3.27
2022-08-26T15:48:22.440Z,2.40
2022-08-26T15:51:05.008Z,4.13
2022-08-26T15:53:39.087Z,3.70
2022-08-26T15:56:07.640Z,2.83
2022-08-26T15:58:38.112Z,2.50
2022-08-26T16:01:07.061Z,1.70
2022-08-26T16:03:38.065Z,3.07
2022-08-26T16:06:09.545Z,2.80
2022-08-26T16:08:39.909Z,4.40
2022-08-26T16:11:19.198Z,2.43
2022-08-26T16:13:50.571Z,4.97
2022-08-26T16:16:21.446Z,4.40
2022-08-26T16:21:39.553Z,3.80
2022-08-26T16:24:11.819Z,3.77
2022-08-26T16:26:41.298Z,4.93
2022-08-26T16:29:12.601Z,2.10
2022-08-26T16:31:44.928Z,1.57
2022-08-26T16:34:15.775Z,2.87
2022-08-26T16:36:43.933Z,3.20
2022-08-26T16:39:13.090Z,1.50
2022-08-26T16:41:47.191Z,3.87
2022-08-26T16:44:19.509Z,2.73
2022-08-26T16:46:55.992Z,5.13
2022-08-26T16:49:29.139Z,39.70
2022-08-26T16:52:00.849Z,20.50
2022-08-26T16:54:29.605Z,11.97
2022-08-26T16:57:04.745Z,13.57
2022-08-26T16:59:36.230Z,6.67
2022-08-26T17:02:08.162Z,7.20
2022-08-26T17:04:38.244Z,7.23
2022-08-26T17:07:10.411Z,4.03
2022-08-26T17:09:45.425Z,3.90
2022-08-26T17:12:16.274Z,3.23
2022-08-26T17:14:50.515Z,3.37
2022-08-26T17:17:24.334Z,3.20
2022-08-26T17:19:54.636Z,3.53
2022-08-26T17:22:22.771Z,3.60
2022-08-26T17:24:53.542Z,3.17
2022-08-26T17:27:25.132Z,3.43
2022-08-26T17:29:57.527Z,3.53
2022-08-26T17:32:29.459Z,3.60
2022-08-26T17:34:58.975Z,3.43
2022-08-26T17:37:30.896Z,3.37
2022-08-26T17:40:00.484Z,4.90
2022-08-26T17:42:31.789Z,3.50
2022-08-26T17:45:18.256Z,5.70
2022-08-26T17:47:48.953Z,2.43
2022-08-26T17:50:17.537Z,5.00
2022-08-26T17:52:51.645Z,3.53
2022-08-26T17:55:21.092Z,3.27
2022-08-26T17:57:53.505Z,2.80
2022-08-26T18:00:37.051Z,5.13
2022-08-26T18:03:13.040Z,2.80
2022-08-26T18:05:43.418Z,3.90
2022-08-26T18:08:13.898Z,1.80
2022-08-26T18:10:47.810Z,3.33
2022-08-26T18:13:16.626Z,2.57
2022-08-26T18:18:32.268Z,2.93
2022-08-26T18:21:02.240Z,3.87
2022-08-26T18:23:31.402Z,4.67
2022-08-26T18:26:04.027Z,3.63
2022-08-26T18:28:38.138Z,2.63
2022-08-26T18:31:13.006Z,2.70
2022-08-26T18:33:44.059Z,3.03
2022-08-26T18:36:21.604Z,3.40
2022-08-26T18:38:51.870Z,4.60
2022-08-26T18:41:23.619Z,3.63
2022-08-26T18:44:04.602Z,3.30
2022-08-26T18:49:21.596Z,4.17
2022-08-26T18:51:57.571Z,3.83
2022-08-26T18:54:27.756Z,3.33
2022-08-26T18:56:56.682Z,2.93
2022-08-26T18:59:31.502Z,5.77
2022-08-26T19:02:02.352Z,2.63
2022-08-26T19:04:32.478Z,2.80
2022-08-26T19:07:02.775Z,3.00
2022-08-26T19:09:33.427Z,4.30
2022-08-26T19:12:06.340Z,4.70
2022-08-26T19:14:43.257Z,5.03
2022-08-26T19:17:17.997Z,3.10
2022-08-26T19:19:57.700Z,2.77
2022-08-26T19:22:28.043Z,4.27
2022-08-26T19:24:59.098Z,3.23
2022-08-26T19:27:30.192Z,3.97
2022-08-26T19:30:04.321Z,3.17
2022-08-26T19:32:33.910Z,4.00
2022-08-26T19:35:01.276Z,2.87
2022-08-26T19:37:31.449Z,2.87
2022-08-26T19:40:00.257Z,3.57
2022-08-26T19:42:32.213Z,3.20
2022-08-26T19:45:24.902Z,3.77
2022-08-26T19:50:38.808Z,3.50
2022-08-26T19:53:41.678Z,3.90
2022-08-26T19:56:15.400Z,6.33
2022-08-26T19:58:45.113Z,4.20
2022-08-26T20:01:17.287Z,5.17
2022-08-26T20:03:49.116Z,4.00
2022-08-26T20:06:20.756Z,4.20
2022-08-26T20:08:52.000Z,4.37
2022-08-26T20:11:21.795Z,4.13
2022-08-26T20:13:52.862Z,4.20
2022-08-26T20:16:24.727Z,3.57
2022-08-26T20:19:14.064Z,4.57
2022-08-26T20:21:45.203Z,3.50
2022-08-26T20:24:18.939Z,3.27
2022-08-26T20:26:49.497Z,5.43
2022-08-26T20:29:21.501Z,5.57
2022-08-26T20:31:50.078Z,4.43
2022-08-26T20:34:21.232Z,3.63
2022-08-26T20:36:57.797Z,2.30
2022-08-26T20:39:33.823Z,3.83
2022-08-26T20:42:20.059Z,3.40
2022-08-26T20:44:54.699Z,6.10
2022-08-26T20:47:26.118Z,4.47
2022-08-26T20:49:58.894Z,5.03
2022-08-26T20:52:26.047Z,2.07
2022-08-26T20:54:56.794Z,2.37
2022-08-26T20:57:29.645Z,2.37
2022-08-26T21:00:01.610Z,3.80
2022-08-26T21:02:30.500Z,4.17
2022-08-26T21:05:01.992Z,3.03
2022-08-26T21:07:32.813Z,2.53
2022-08-26T21:10:04.061Z,3.17
2022-08-26T21:12:35.790Z,3.23
2022-08-26T21:15:10.134Z,2.53
2022-08-26T21:17:45.838Z,3.50
2022-08-26T21:20:18.487Z,3.00
2022-08-26T21:22:49.810Z,4.03
2022-08-26T21:25:23.492Z,3.07
2022-08-26T21:27:57.327Z,4.57
2022-08-26T21:30:25.935Z,3.90
2022-08-26T21:32:57.476Z,4.23
2022-08-26T21:35:24.628Z,3.40
2022-08-26T21:37:56.390Z,2.77
2022-08-26T21:40:25.999Z,4.83
2022-08-26T21:42:55.310Z,3.17
2022-08-26T21:45:23.174Z,3.17
2022-08-26T21:47:54.167Z,2.47
2022-08-26T21:50:25.283Z,3.00
2022-08-26T21:52:53.673Z,3.53
2022-08-26T21:55:23.405Z,3.40
2022-08-26T21:57:55.452Z,2.70
2022-08-26T22:00:25.590Z,2.67
2022-08-26T22:03:03.017Z,6.50
2022-08-26T22:05:34.128Z,5.30
2022-08-26T22:08:06.088Z,2.63
2022-08-26T22:10:35.785Z,4.10
2022-08-26T22:13:07.078Z,4.73
2022-08-26T22:15:36.788Z,4.40
2022-08-26T22:18:16.432Z,3.07
2022-08-26T22:20:49.680Z,2.20
2022-08-26T22:23:30.675Z,2.80
2022-08-26T22:26:08.046Z,3.13
2022-08-26T22:28:38.237Z,2.03
2022-08-26T22:31:11.559Z,2.73
2022-08-26T22:33:39.516Z,2.97
2022-08-26T22:36:10.794Z,1.63
2022-08-26T22:38:40.018Z,1.97
2022-08-26T22:41:15.336Z,3.17
2022-08-26T22:43:46.467Z,3.60
2022-08-26T22:46:19.684Z,4.57
2022-08-26T22:48:54.047Z,2.27
2022-08-26T22:51:27.297Z,3.60
2022-08-26T22:53:56.484Z,2.57
2022-08-26T22:56:29.709Z,3.60
2022-08-26T22:59:01.732Z,4.30
2022-08-26T23:01:34.014Z,2.63
2022-08-26T23:04:06.234Z,2.87
2022-08-26T23:06:39.115Z,3.30
2022-08-26T23:09:07.995Z,3.70
2022-08-26T23:11:42.131Z,2.80
2022-08-26T23:14:14.710Z,2.90
2022-08-26T23:16:46.800Z,3.17
2022-08-26T23:22:04.775Z,3.30
2022-08-26T23:24:34.288Z,3.20
2022-08-26T23:27:08.464Z,3.10
2022-08-26T23:29:42.824Z,3.20
2022-08-26T23:32:12.290Z,2.10
2022-08-26T23:35:00.834Z,3.73
2022-08-26T23:37:34.299Z,3.63
2022-08-26T23:40:15.021Z,3.33
2022-08-26T23:42:47.782Z,2.40
2022-08-26T23:45:20.398Z,2.43
2022-08-26T23:47:53.173Z,2.07
2022-08-26T23:50:25.378Z,2.83
2022-08-26T23:53:11.013Z,4.00
2022-08-26T23:55:43.440Z,2.43
2022-08-26T23:58:12.704Z,2.37
